sensor_id;sensor_type;location;lat;lon;timestamp;P1;durP1;ratioP1;P2;durP2;ratioP2
32032;SDS011;31720;52.638;9.216;2022-09-24T00:00:00;11.15;;;4.82;;
32032;SDS011;31720;52.638;9.216;2022-09-24T00:03:01;6.57;;;4.32;;
32032;SDS011;31720;52.638;9.216;2022-09-24T00:06:03;7.68;;;4.32;;
32032;SDS011;31720;52.638;9.216;2022-09-24T00:09:06;7.20;;;4.43;;
32032;SDS011;31720;52.638;9.216;2022-09-24T00:12:07;6.78;;;4.07;;
32032;SDS011;31720;52.638;9.216;2022-09-24T00:15:13;7.35;;;4.32;;
32032;SDS011;31720;52.638;9.216;2022-09-24T00:18:15;7.32;;;4.22;;
32032;SDS011;31720;52.638;9.216;2022-09-24T00:21:19;9.63;;;4.38;;
32032;SDS011;31720;52.638;9.216;2022-09-24T00:24:22;7.93;;;4.35;;
32032;SDS011;31720;52.638;9.216;2022-09-24T00:27:38;6.80;;;4.28;;
32032;SDS011;31720;52.638;9.216;2022-09-24T00:30:41;4.50;;;3.17;;
32032;SDS011;31720;52.638;9.216;2022-09-24T00:33:44;8.68;;;4.47;;
32032;SDS011;31720;52.638;9.216;2022-09-24T00:36:45;6.70;;;4.00;;
32032;SDS011;31720;52.638;9.216;2022-09-24T00:39:47;8.43;;;4.40;;
32032;SDS011;31720;52.638;9.216;2022-09-24T00:42:48;7.80;;;4.78;;
32032;SDS011;31720;52.638;9.216;2022-09-24T00:45:51;7.68;;;4.25;;
32032;SDS011;31720;52.638;9.216;2022-09-24T00:48:56;7.47;;;4.47;;
32032;SDS011;31720;52.638;9.216;2022-09-24T00:52:00;11.10;;;4.72;;
32032;SDS011;31720;52.638;9.216;2022-09-24T00:55:02;12.35;;;5.93;;
32032;SDS011;31720;52.638;9.216;2022-09-24T00:58:05;7.30;;;4.43;;
32032;SDS011;31720;52.638;9.216;2022-09-24T01:01:09;9.55;;;4.32;;
32032;SDS011;31720;52.638;9.216;2022-09-24T01:04:11;6.32;;;4.45;;
32032;SDS011;31720;52.638;9.216;2022-09-24T01:07:14;10.40;;;4.07;;
32032;SDS011;31720;52.638;9.216;2022-09-24T01:10:15;8.02;;;5.25;;
32032;SDS011;31720;52.638;9.216;2022-09-24T01:13:43;7.15;;;4.25;;
32032;SDS011;31720;52.638;9.216;2022-09-24T01:16:58;9.38;;;5.18;;
32032;SDS011;31720;52.638;9.216;2022-09-24T01:20:19;9.15;;;4.90;;
32032;SDS011;31720;52.638;9.216;2022-09-24T01:23:59;9.02;;;5.22;;
32032;SDS011;31720;52.638;9.216;2022-09-24T01:27:15;9.00;;;4.93;;
32032;SDS011;31720;52.638;9.216;2022-09-24T01:30:21;7.80;;;4.82;;
32032;SDS011;31720;52.638;9.216;2022-09-24T01:33:24;7.40;;;4.60;;
32032;SDS011;31720;52.638;9.216;2022-09-24T01:36:28;7.88;;;4.72;;
32032;SDS011;31720;52.638;9.216;2022-09-24T01:39:32;10.75;;;4.50;;
32032;SDS011;31720;52.638;9.216;2022-09-24T01:42:36;8.10;;;4.50;;
32032;SDS011;31720;52.638;9.216;2022-09-24T01:45:43;9.27;;;4.57;;
32032;SDS011;31720;52.638;9.216;2022-09-24T01:48:45;11.82;;;5.43;;
32032;SDS011;31720;52.638;9.216;2022-09-24T01:51:48;10.00;;;5.35;;
32032;SDS011;31720;52.638;9.216;2022-09-24T01:54:54;7.82;;;4.68;;
32032;SDS011;31720;52.638;9.216;2022-09-24T01:57:58;7.85;;;5.28;;
32032;SDS011;31720;52.638;9.216;2022-09-24T02:01:06;6.88;;;4.65;;
32032;SDS011;31720;52.638;9.216;2022-09-24T02:04:15;7.78;;;5.05;;
32032;SDS011;31720;52.638;9.216;2022-09-24T02:07:19;7.35;;;5.00;;
32032;SDS011;31720;52.638;9.216;2022-09-24T02:10:24;6.43;;;4.82;;
32032;SDS011;31720;52.638;9.216;2022-09-24T02:13:32;7.55;;;4.78;;
32032;SDS011;31720;52.638;9.216;2022-09-24T02:16:40;9.65;;;5.15;;
32032;SDS011;31720;52.638;9.216;2022-09-24T02:19:46;7.60;;;4.97;;
32032;SDS011;31720;52.638;9.216;2022-09-24T02:22:49;9.55;;;5.63;;
32032;SDS011;31720;52.638;9.216;2022-09-24T02:25:54;9.73;;;5.78;;
32032;SDS011;31720;52.638;9.216;2022-09-24T02:28:58;9.70;;;6.10;;
32032;SDS011;31720;52.638;9.216;2022-09-24T02:32:01;8.73;;;5.45;;
32032;SDS011;31720;52.638;9.216;2022-09-24T02:35:05;8.75;;;5.30;;
32032;SDS011;31720;52.638;9.216;2022-09-24T02:38:14;8.43;;;5.43;;
32032;SDS011;31720;52.638;9.216;2022-09-24T02:41:16;13.02;;;6.63;;
32032;SDS011;31720;52.638;9.216;2022-09-24T02:44:18;7.25;;;5.50;;
32032;SDS011;31720;52.638;9.216;2022-09-24T02:47:22;12.68;;;5.75;;
32032;SDS011;31720;52.638;9.216;2022-09-24T02:50:24;9.77;;;5.72;;
32032;SDS011;31720;52.638;9.216;2022-09-24T02:53:25;18.48;;;6.40;;
32032;SDS011;31720;52.638;9.216;2022-09-24T02:56:26;11.23;;;6.72;;
32032;SDS011;31720;52.638;9.216;2022-09-24T02:59:28;10.27;;;5.90;;
32032;SDS011;31720;52.638;9.216;2022-09-24T03:02:30;12.52;;;6.15;;
32032;SDS011;31720;52.638;9.216;2022-09-24T03:05:32;12.75;;;6.70;;
32032;SDS011;31720;52.638;9.216;2022-09-24T03:08:33;10.45;;;5.82;;
32032;SDS011;31720;52.638;9.216;2022-09-24T03:11:35;9.63;;;5.65;;
32032;SDS011;31720;52.638;9.216;2022-09-24T03:14:36;10.38;;;6.32;;
32032;SDS011;31720;52.638;9.216;2022-09-24T03:17:39;8.93;;;5.93;;
32032;SDS011;31720;52.638;9.216;2022-09-24T03:20:41;10.90;;;5.22;;
32032;SDS011;31720;52.638;9.216;2022-09-24T03:23:42;10.65;;;6.57;;
32032;SDS011;31720;52.638;9.216;2022-09-24T03:26:44;11.00;;;6.03;;
32032;SDS011;31720;52.638;9.216;2022-09-24T03:29:45;10.27;;;6.28;;
32032;SDS011;31720;52.638;9.216;2022-09-24T03:33:05;9.80;;;6.35;;
32032;SDS011;31720;52.638;9.216;2022-09-24T03:36:08;17.35;;;6.50;;
32032;SDS011;31720;52.638;9.216;2022-09-24T03:39:10;10.45;;;6.32;;
32032;SDS011;31720;52.638;9.216;2022-09-24T03:42:12;11.75;;;7.20;;
32032;SDS011;31720;52.638;9.216;2022-09-24T03:45:13;11.68;;;6.65;;
32032;SDS011;31720;52.638;9.216;2022-09-24T03:48:16;13.43;;;6.43;;
32032;SDS011;31720;52.638;9.216;2022-09-24T03:51:19;17.50;;;7.05;;
32032;SDS011;31720;52.638;9.216;2022-09-24T03:54:20;12.13;;;7.57;;
32032;SDS011;31720;52.638;9.216;2022-09-24T03:57:21;13.70;;;7.22;;
32032;SDS011;31720;52.638;9.216;2022-09-24T04:00:23;12.70;;;7.45;;
32032;SDS011;31720;52.638;9.216;2022-09-24T04:03:26;13.43;;;7.45;;
32032;SDS011;31720;52.638;9.216;2022-09-24T04:06:27;16.63;;;7.82;;
32032;SDS011;31720;52.638;9.216;2022-09-24T04:09:29;12.65;;;7.25;;
32032;SDS011;31720;52.638;9.216;2022-09-24T04:12:30;11.80;;;7.10;;
32032;SDS011;31720;52.638;9.216;2022-09-24T04:15:31;12.38;;;7.13;;
32032;SDS011;31720;52.638;9.216;2022-09-24T04:18:34;14.68;;;7.50;;
32032;SDS011;31720;52.638;9.216;2022-09-24T04:21:36;11.80;;;7.43;;
32032;SDS011;31720;52.638;9.216;2022-09-24T04:24:37;12.68;;;7.07;;
32032;SDS011;31720;52.638;9.216;2022-09-24T04:27:39;11.98;;;7.35;;
32032;SDS011;31720;52.638;9.216;2022-09-24T04:30:40;12.32;;;6.70;;
32032;SDS011;31720;52.638;9.216;2022-09-24T04:33:43;15.07;;;7.63;;
32032;SDS011;31720;52.638;9.216;2022-09-24T04:36:44;13.20;;;8.10;;
32032;SDS011;31720;52.638;9.216;2022-09-24T04:39:46;13.25;;;8.23;;
32032;SDS011;31720;52.638;9.216;2022-09-24T04:42:47;15.00;;;7.63;;
32032;SDS011;31720;52.638;9.216;2022-09-24T04:45:48;19.42;;;8.52;;
32032;SDS011;31720;52.638;9.216;2022-09-24T04:48:52;13.05;;;8.60;;
32032;SDS011;31720;52.638;9.216;2022-09-24T04:51:54;14.38;;;8.55;;
32032;SDS011;31720;52.638;9.216;2022-09-24T04:54:57;12.93;;;8.02;;
32032;SDS011;31720;52.638;9.216;2022-09-24T04:57:58;14.07;;;8.20;;
32032;SDS011;31720;52.638;9.216;2022-09-24T05:01:00;17.33;;;9.10;;
32032;SDS011;31720;52.638;9.216;2022-09-24T05:04:04;14.63;;;9.00;;
32032;SDS011;31720;52.638;9.216;2022-09-24T05:07:05;16.90;;;9.07;;
32032;SDS011;31720;52.638;9.216;2022-09-24T05:10:07;16.55;;;9.05;;
32032;SDS011;31720;52.638;9.216;2022-09-24T05:13:08;14.25;;;8.45;;
32032;SDS011;31720;52.638;9.216;2022-09-24T05:16:10;13.02;;;8.15;;
32032;SDS011;31720;52.638;9.216;2022-09-24T05:19:12;14.40;;;8.38;;
32032;SDS011;31720;52.638;9.216;2022-09-24T05:22:14;15.63;;;8.85;;
32032;SDS011;31720;52.638;9.216;2022-09-24T05:25:16;13.32;;;8.23;;
32032;SDS011;31720;52.638;9.216;2022-09-24T05:28:19;16.05;;;9.18;;
32032;SDS011;31720;52.638;9.216;2022-09-24T05:31:20;15.95;;;9.68;;
32032;SDS011;31720;52.638;9.216;2022-09-24T05:34:23;15.75;;;8.80;;
32032;SDS011;31720;52.638;9.216;2022-09-24T05:37:24;15.23;;;9.68;;
32032;SDS011;31720;52.638;9.216;2022-09-24T05:40:25;19.27;;;9.35;;
32032;SDS011;31720;52.638;9.216;2022-09-24T05:43:44;17.83;;;8.70;;
32032;SDS011;31720;52.638;9.216;2022-09-24T05:46:46;19.00;;;9.45;;
32032;SDS011;31720;52.638;9.216;2022-09-24T05:49:48;21.35;;;10.82;;
32032;SDS011;31720;52.638;9.216;2022-09-24T05:52:50;19.65;;;9.93;;
32032;SDS011;31720;52.638;9.216;2022-09-24T05:55:51;20.67;;;10.48;;
32032;SDS011;31720;52.638;9.216;2022-09-24T05:58:53;20.90;;;10.90;;
32032;SDS011;31720;52.638;9.216;2022-09-24T06:01:54;12.48;;;8.55;;
32032;SDS011;31720;52.638;9.216;2022-09-24T06:04:57;18.85;;;9.52;;
32032;SDS011;31720;52.638;9.216;2022-09-24T06:07:58;18.20;;;9.20;;
32032;SDS011;31720;52.638;9.216;2022-09-24T06:11:00;17.35;;;10.02;;
32032;SDS011;31720;52.638;9.216;2022-09-24T06:14:04;16.33;;;9.25;;
32032;SDS011;31720;52.638;9.216;2022-09-24T06:17:05;15.85;;;8.73;;
32032;SDS011;31720;52.638;9.216;2022-09-24T06:20:08;19.73;;;10.35;;
32032;SDS011;31720;52.638;9.216;2022-09-24T06:23:09;13.68;;;8.52;;
32032;SDS011;31720;52.638;9.216;2022-09-24T06:26:11;19.75;;;11.23;;
32032;SDS011;31720;52.638;9.216;2022-09-24T06:29:13;18.73;;;10.32;;
32032;SDS011;31720;52.638;9.216;2022-09-24T06:32:15;18.70;;;8.75;;
32032;SDS011;31720;52.638;9.216;2022-09-24T06:35:19;22.35;;;10.63;;
32032;SDS011;31720;52.638;9.216;2022-09-24T06:38:21;20.58;;;10.68;;
32032;SDS011;31720;52.638;9.216;2022-09-24T06:41:22;21.13;;;10.05;;
32032;SDS011;31720;52.638;9.216;2022-09-24T06:44:24;19.40;;;11.05;;
32032;SDS011;31720;52.638;9.216;2022-09-24T06:47:26;17.45;;;10.65;;
32032;SDS011;31720;52.638;9.216;2022-09-24T06:50:31;20.70;;;10.32;;
32032;SDS011;31720;52.638;9.216;2022-09-24T06:53:33;20.52;;;10.02;;
32032;SDS011;31720;52.638;9.216;2022-09-24T06:56:35;19.77;;;10.93;;
32032;SDS011;31720;52.638;9.216;2022-09-24T06:59:36;20.45;;;10.95;;
32032;SDS011;31720;52.638;9.216;2022-09-24T07:02:37;21.63;;;10.80;;
32032;SDS011;31720;52.638;9.216;2022-09-24T07:05:40;22.55;;;11.43;;
32032;SDS011;31720;52.638;9.216;2022-09-24T07:08:42;19.67;;;11.07;;
32032;SDS011;31720;52.638;9.216;2022-09-24T07:11:43;19.50;;;10.82;;
32032;SDS011;31720;52.638;9.216;2022-09-24T07:14:45;22.52;;;11.07;;
32032;SDS011;31720;52.638;9.216;2022-09-24T07:17:46;18.08;;;10.85;;
32032;SDS011;31720;52.638;9.216;2022-09-24T07:20:52;22.77;;;11.05;;
32032;SDS011;31720;52.638;9.216;2022-09-24T07:23:54;20.15;;;9.40;;
32032;SDS011;31720;52.638;9.216;2022-09-24T07:26:55;22.90;;;11.23;;
32032;SDS011;31720;52.638;9.216;2022-09-24T07:29:57;23.08;;;11.20;;
32032;SDS011;31720;52.638;9.216;2022-09-24T07:32:58;22.48;;;12.15;;
32032;SDS011;31720;52.638;9.216;2022-09-24T07:36:03;20.90;;;10.68;;
32032;SDS011;31720;52.638;9.216;2022-09-24T07:39:06;24.52;;;11.25;;
32032;SDS011;31720;52.638;9.216;2022-09-24T07:42:07;23.65;;;11.85;;
32032;SDS011;31720;52.638;9.216;2022-09-24T07:45:09;20.48;;;10.25;;
32032;SDS011;31720;52.638;9.216;2022-09-24T07:48:11;20.38;;;10.35;;
32032;SDS011;31720;52.638;9.216;2022-09-24T07:51:16;17.48;;;9.80;;
32032;SDS011;31720;52.638;9.216;2022-09-24T07:54:17;20.10;;;11.45;;
32032;SDS011;31720;52.638;9.216;2022-09-24T07:57:19;16.80;;;10.00;;
32032;SDS011;31720;52.638;9.216;2022-09-24T08:00:21;22.85;;;11.88;;
32032;SDS011;31720;52.638;9.216;2022-09-24T08:03:23;20.95;;;11.27;;
32032;SDS011;31720;52.638;9.216;2022-09-24T08:06:26;20.83;;;10.57;;
32032;SDS011;31720;52.638;9.216;2022-09-24T08:09:27;21.02;;;10.80;;
32032;SDS011;31720;52.638;9.216;2022-09-24T08:12:29;21.55;;;11.65;;
32032;SDS011;31720;52.638;9.216;2022-09-24T08:15:30;18.17;;;9.98;;
32032;SDS011;31720;52.638;9.216;2022-09-24T08:18:32;19.38;;;9.02;;
32032;SDS011;31720;52.638;9.216;2022-09-24T08:21:36;18.17;;;10.13;;
32032;SDS011;31720;52.638;9.216;2022-09-24T08:24:38;16.48;;;9.15;;
32032;SDS011;31720;52.638;9.216;2022-09-24T08:27:40;15.50;;;8.52;;
32032;SDS011;31720;52.638;9.216;2022-09-24T08:30:41;18.58;;;10.43;;
32032;SDS011;31720;52.638;9.216;2022-09-24T08:33:43;12.90;;;8.13;;
32032;SDS011;31720;52.638;9.216;2022-09-24T08:36:46;22.15;;;9.88;;
32032;SDS011;31720;52.638;9.216;2022-09-24T08:39:49;17.92;;;9.55;;
32032;SDS011;31720;52.638;9.216;2022-09-24T08:42:52;17.88;;;9.75;;
32032;SDS011;31720;52.638;9.216;2022-09-24T08:46:02;18.83;;;9.63;;
32032;SDS011;31720;52.638;9.216;2022-09-24T08:49:32;13.73;;;8.38;;
32032;SDS011;31720;52.638;9.216;2022-09-24T08:52:56;18.33;;;10.00;;
32032;SDS011;31720;52.638;9.216;2022-09-24T08:56:03;21.25;;;11.23;;
32032;SDS011;31720;52.638;9.216;2022-09-24T08:59:09;21.52;;;11.15;;
32032;SDS011;31720;52.638;9.216;2022-09-24T09:02:31;21.60;;;11.65;;
32032;SDS011;31720;52.638;9.216;2022-09-24T09:05:44;21.25;;;10.75;;
32032;SDS011;31720;52.638;9.216;2022-09-24T09:08:54;18.23;;;10.52;;
32032;SDS011;31720;52.638;9.216;2022-09-24T09:12:04;22.30;;;10.52;;
32032;SDS011;31720;52.638;9.216;2022-09-24T09:15:13;21.55;;;11.02;;
32032;SDS011;31720;52.638;9.216;2022-09-24T09:18:20;18.27;;;8.85;;
32032;SDS011;31720;52.638;9.216;2022-09-24T09:21:27;15.63;;;8.55;;
32032;SDS011;31720;52.638;9.216;2022-09-24T09:24:37;21.08;;;10.68;;
32032;SDS011;31720;52.638;9.216;2022-09-24T09:27:45;22.83;;;10.68;;
32032;SDS011;31720;52.638;9.216;2022-09-24T09:30:58;20.25;;;10.07;;
32032;SDS011;31720;52.638;9.216;2022-09-24T09:37:37;18.98;;;10.55;;
32032;SDS011;31720;52.638;9.216;2022-09-24T09:40:47;21.75;;;10.35;;
32032;SDS011;31720;52.638;9.216;2022-09-24T09:43:57;22.30;;;11.95;;
32032;SDS011;31720;52.638;9.216;2022-09-24T09:47:03;19.88;;;10.88;;
32032;SDS011;31720;52.638;9.216;2022-09-24T09:50:14;23.33;;;12.15;;
32032;SDS011;31720;52.638;9.216;2022-09-24T09:53:24;21.35;;;12.18;;
32032;SDS011;31720;52.638;9.216;2022-09-24T09:56:28;24.60;;;11.07;;
32032;SDS011;31720;52.638;9.216;2022-09-24T09:59:31;22.58;;;10.27;;
32032;SDS011;31720;52.638;9.216;2022-09-24T10:02:35;24.38;;;10.25;;
32032;SDS011;31720;52.638;9.216;2022-09-24T10:05:41;19.48;;;9.27;;
32032;SDS011;31720;52.638;9.216;2022-09-24T10:08:51;26.92;;;12.20;;
32032;SDS011;31720;52.638;9.216;2022-09-24T10:12:04;23.58;;;10.40;;
32032;SDS011;31720;52.638;9.216;2022-09-24T10:15:14;18.77;;;10.10;;
32032;SDS011;31720;52.638;9.216;2022-09-24T10:18:20;18.23;;;10.27;;
32032;SDS011;31720;52.638;9.216;2022-09-24T10:21:30;18.33;;;10.70;;
32032;SDS011;31720;52.638;9.216;2022-09-24T10:24:33;23.92;;;11.40;;
32032;SDS011;31720;52.638;9.216;2022-09-24T10:27:39;21.65;;;11.00;;
32032;SDS011;31720;52.638;9.216;2022-09-24T10:30:50;19.15;;;10.55;;
32032;SDS011;31720;52.638;9.216;2022-09-24T10:33:54;19.63;;;10.05;;
32032;SDS011;31720;52.638;9.216;2022-09-24T10:36:59;18.23;;;9.38;;
32032;SDS011;31720;52.638;9.216;2022-09-24T10:40:11;18.88;;;10.40;;
32032;SDS011;31720;52.638;9.216;2022-09-24T10:43:17;19.30;;;9.63;;
32032;SDS011;31720;52.638;9.216;2022-09-24T10:46:25;17.52;;;9.20;;
32032;SDS011;31720;52.638;9.216;2022-09-24T10:49:44;20.55;;;7.90;;
32032;SDS011;31720;52.638;9.216;2022-09-24T10:52:59;21.77;;;10.20;;
32032;SDS011;31720;52.638;9.216;2022-09-24T10:56:04;14.10;;;7.70;;
32032;SDS011;31720;52.638;9.216;2022-09-24T10:59:24;16.92;;;8.18;;
32032;SDS011;31720;52.638;9.216;2022-09-24T11:02:50;16.60;;;8.15;;
32032;SDS011;31720;52.638;9.216;2022-09-24T11:06:09;20.52;;;8.05;;
32032;SDS011;31720;52.638;9.216;2022-09-24T11:09:21;21.00;;;8.75;;
32032;SDS011;31720;52.638;9.216;2022-09-24T11:12:31;19.23;;;9.27;;
32032;SDS011;31720;52.638;9.216;2022-09-24T11:15:51;13.25;;;7.95;;
32032;SDS011;31720;52.638;9.216;2022-09-24T11:19:01;15.68;;;8.13;;
32032;SDS011;31720;52.638;9.216;2022-09-24T11:22:08;17.65;;;9.30;;
32032;SDS011;31720;52.638;9.216;2022-09-24T11:25:18;16.85;;;8.05;;
32032;SDS011;31720;52.638;9.216;2022-09-24T11:28:36;18.90;;;8.82;;
32032;SDS011;31720;52.638;9.216;2022-09-24T11:35:16;15.15;;;7.93;;
32032;SDS011;31720;52.638;9.216;2022-09-24T11:38:31;19.10;;;7.35;;
32032;SDS011;31720;52.638;9.216;2022-09-24T11:41:48;15.27;;;8.38;;
32032;SDS011;31720;52.638;9.216;2022-09-24T11:45:03;14.18;;;7.72;;
32032;SDS011;31720;52.638;9.216;2022-09-24T11:48:29;16.50;;;7.75;;
32032;SDS011;31720;52.638;9.216;2022-09-24T11:51:46;14.70;;;8.27;;
32032;SDS011;31720;52.638;9.216;2022-09-24T11:54:55;21.98;;;8.63;;
32032;SDS011;31720;52.638;9.216;2022-09-24T11:58:06;15.48;;;8.48;;
32032;SDS011;31720;52.638;9.216;2022-09-24T12:01:16;14.75;;;8.15;;
32032;SDS011;31720;52.638;9.216;2022-09-24T12:04:23;15.85;;;8.38;;
32032;SDS011;31720;52.638;9.216;2022-09-24T12:07:31;14.18;;;7.85;;
32032;SDS011;31720;52.638;9.216;2022-09-24T12:10:41;15.02;;;8.13;;
32032;SDS011;31720;52.638;9.216;2022-09-24T12:13:46;14.93;;;8.80;;
32032;SDS011;31720;52.638;9.216;2022-09-24T12:16:52;16.38;;;8.60;;
32032;SDS011;31720;52.638;9.216;2022-09-24T12:20:00;17.70;;;8.20;;
32032;SDS011;31720;52.638;9.216;2022-09-24T12:23:08;18.60;;;9.13;;
32032;SDS011;31720;52.638;9.216;2022-09-24T12:26:13;17.85;;;8.05;;
32032;SDS011;31720;52.638;9.216;2022-09-24T12:29:23;16.45;;;7.85;;
32032;SDS011;31720;52.638;9.216;2022-09-24T12:32:53;16.05;;;8.75;;
32032;SDS011;31720;52.638;9.216;2022-09-24T12:36:03;17.40;;;9.13;;
32032;SDS011;31720;52.638;9.216;2022-09-24T12:39:10;22.52;;;10.50;;
32032;SDS011;31720;52.638;9.216;2022-09-24T12:42:15;17.13;;;9.07;;
32032;SDS011;31720;52.638;9.216;2022-09-24T12:45:20;15.88;;;8.27;;
32032;SDS011;31720;52.638;9.216;2022-09-24T12:48:23;16.55;;;8.02;;
32032;SDS011;31720;52.638;9.216;2022-09-24T12:51:33;13.23;;;7.35;;
32032;SDS011;31720;52.638;9.216;2022-09-24T12:54:37;19.85;;;9.23;;
32032;SDS011;31720;52.638;9.216;2022-09-24T12:57:39;17.52;;;7.97;;
32032;SDS011;31720;52.638;9.216;2022-09-24T13:00:42;18.65;;;8.05;;
32032;SDS011;31720;52.638;9.216;2022-09-24T13:03:59;18.23;;;8.10;;
32032;SDS011;31720;52.638;9.216;2022-09-24T13:10:30;16.13;;;7.90;;
32032;SDS011;31720;52.638;9.216;2022-09-24T13:13:34;18.73;;;8.43;;
32032;SDS011;31720;52.638;9.216;2022-09-24T13:16:40;16.30;;;8.55;;
32032;SDS011;31720;52.638;9.216;2022-09-24T13:19:43;14.27;;;7.55;;
32032;SDS011;31720;52.638;9.216;2022-09-24T13:22:54;19.08;;;9.40;;
32032;SDS011;31720;52.638;9.216;2022-09-24T13:25:58;17.35;;;9.55;;
32032;SDS011;31720;52.638;9.216;2022-09-24T13:29:03;23.98;;;9.40;;
32032;SDS011;31720;52.638;9.216;2022-09-24T13:32:07;19.77;;;8.70;;
32032;SDS011;31720;52.638;9.216;2022-09-24T13:35:20;17.98;;;9.18;;
32032;SDS011;31720;52.638;9.216;2022-09-24T13:38:26;16.50;;;9.43;;
32032;SDS011;31720;52.638;9.216;2022-09-24T13:41:34;20.13;;;9.93;;
32032;SDS011;31720;52.638;9.216;2022-09-24T13:44:42;15.38;;;8.10;;
32032;SDS011;31720;52.638;9.216;2022-09-24T13:47:49;17.40;;;9.10;;
32032;SDS011;31720;52.638;9.216;2022-09-24T13:50:53;17.42;;;8.95;;
32032;SDS011;31720;52.638;9.216;2022-09-24T13:53:57;17.23;;;8.95;;
32032;SDS011;31720;52.638;9.216;2022-09-24T13:57:07;19.02;;;9.45;;
32032;SDS011;31720;52.638;9.216;2022-09-24T14:00:12;16.80;;;8.15;;
32032;SDS011;31720;52.638;9.216;2022-09-24T14:03:19;20.98;;;9.20;;
32032;SDS011;31720;52.638;9.216;2022-09-24T14:06:31;18.88;;;9.00;;
32032;SDS011;31720;52.638;9.216;2022-09-24T14:09:35;14.10;;;6.70;;
32032;SDS011;31720;52.638;9.216;2022-09-24T14:12:37;20.88;;;9.98;;
32032;SDS011;31720;52.638;9.216;2022-09-24T14:15:48;19.42;;;9.98;;
32032;SDS011;31720;52.638;9.216;2022-09-24T14:18:59;19.13;;;9.45;;
32032;SDS011;31720;52.638;9.216;2022-09-24T14:22:02;19.50;;;9.55;;
32032;SDS011;31720;52.638;9.216;2022-09-24T14:25:08;16.83;;;8.68;;
32032;SDS011;31720;52.638;9.216;2022-09-24T14:28:14;17.23;;;8.85;;
32032;SDS011;31720;52.638;9.216;2022-09-24T14:31:16;20.90;;;9.02;;
32032;SDS011;31720;52.638;9.216;2022-09-24T14:34:21;20.80;;;11.18;;
32032;SDS011;31720;52.638;9.216;2022-09-24T14:37:27;14.95;;;8.32;;
32032;SDS011;31720;52.638;9.216;2022-09-24T14:40:39;17.77;;;9.70;;
32032;SDS011;31720;52.638;9.216;2022-09-24T14:43:43;20.50;;;9.18;;
32032;SDS011;31720;52.638;9.216;2022-09-24T14:46:47;18.58;;;9.38;;
32032;SDS011;31720;52.638;9.216;2022-09-24T14:49:51;17.30;;;9.10;;
32032;SDS011;31720;52.638;9.216;2022-09-24T14:52:54;20.50;;;9.10;;
32032;SDS011;31720;52.638;9.216;2022-09-24T14:55:58;16.45;;;7.63;;
32032;SDS011;31720;52.638;9.216;2022-09-24T14:58:59;14.52;;;8.18;;
32032;SDS011;31720;52.638;9.216;2022-09-24T15:02:02;21.00;;;9.45;;
32032;SDS011;31720;52.638;9.216;2022-09-24T15:05:12;14.38;;;8.20;;
32032;SDS011;31720;52.638;9.216;2022-09-24T15:08:22;16.92;;;8.80;;
32032;SDS011;31720;52.638;9.216;2022-09-24T15:11:29;16.45;;;8.23;;
32032;SDS011;31720;52.638;9.216;2022-09-24T15:14:33;15.50;;;8.98;;
32032;SDS011;31720;52.638;9.216;2022-09-24T15:17:35;17.83;;;7.65;;
32032;SDS011;31720;52.638;9.216;2022-09-24T15:20:37;15.60;;;8.43;;
32032;SDS011;31720;52.638;9.216;2022-09-24T15:23:38;14.70;;;8.05;;
32032;SDS011;31720;52.638;9.216;2022-09-24T15:26:42;21.55;;;8.88;;
32032;SDS011;31720;52.638;9.216;2022-09-24T15:29:44;14.27;;;7.93;;
32032;SDS011;31720;52.638;9.216;2022-09-24T15:32:46;17.30;;;9.02;;
32032;SDS011;31720;52.638;9.216;2022-09-24T15:35:48;15.98;;;7.97;;
32032;SDS011;31720;52.638;9.216;2022-09-24T15:38:51;15.93;;;8.07;;
32032;SDS011;31720;52.638;9.216;2022-09-24T15:42:01;12.55;;;7.45;;
32032;SDS011;31720;52.638;9.216;2022-09-24T15:45:05;14.43;;;6.97;;
32032;SDS011;31720;52.638;9.216;2022-09-24T15:48:09;7.70;;;5.22;;
32032;SDS011;31720;52.638;9.216;2022-09-24T15:51:11;12.02;;;5.88;;
32032;SDS011;31720;52.638;9.216;2022-09-24T15:54:16;9.85;;;5.20;;
32032;SDS011;31720;52.638;9.216;2022-09-24T15:57:18;19.05;;;7.45;;
32032;SDS011;31720;52.638;9.216;2022-09-24T16:00:22;17.55;;;9.70;;
32032;SDS011;31720;52.638;9.216;2022-09-24T16:03:24;15.35;;;8.02;;
32032;SDS011;31720;52.638;9.216;2022-09-24T16:06:27;16.33;;;8.07;;
32032;SDS011;31720;52.638;9.216;2022-09-24T16:09:28;16.17;;;9.05;;
32032;SDS011;31720;52.638;9.216;2022-09-24T16:12:31;20.92;;;10.18;;
32032;SDS011;31720;52.638;9.216;2022-09-24T16:15:32;21.27;;;10.68;;
32032;SDS011;31720;52.638;9.216;2022-09-24T16:18:34;21.52;;;10.35;;
32032;SDS011;31720;52.638;9.216;2022-09-24T16:21:38;20.67;;;9.75;;
32032;SDS011;31720;52.638;9.216;2022-09-24T16:24:40;16.83;;;9.23;;
32032;SDS011;31720;52.638;9.216;2022-09-24T16:27:42;20.63;;;8.80;;
32032;SDS011;31720;52.638;9.216;2022-09-24T16:30:44;26.35;;;12.30;;
32032;SDS011;31720;52.638;9.216;2022-09-24T16:33:45;20.55;;;10.85;;
32032;SDS011;31720;52.638;9.216;2022-09-24T16:36:47;15.25;;;9.00;;
32032;SDS011;31720;52.638;9.216;2022-09-24T16:39:48;17.85;;;10.00;;
32032;SDS011;31720;52.638;9.216;2022-09-24T16:42:51;16.27;;;7.78;;
32032;SDS011;31720;52.638;9.216;2022-09-24T16:45:54;20.77;;;10.50;;
32032;SDS011;31720;52.638;9.216;2022-09-24T16:48:59;17.85;;;9.20;;
32032;SDS011;31720;52.638;9.216;2022-09-24T16:52:01;15.73;;;8.13;;
32032;SDS011;31720;52.638;9.216;2022-09-24T16:55:03;24.90;;;10.02;;
32032;SDS011;31720;52.638;9.216;2022-09-24T16:58:06;17.13;;;9.10;;
32032;SDS011;31720;52.638;9.216;2022-09-24T17:01:09;20.65;;;10.05;;
32032;SDS011;31720;52.638;9.216;2022-09-24T17:04:12;19.48;;;10.73;;
32032;SDS011;31720;52.638;9.216;2022-09-24T17:07:14;21.95;;;10.70;;
32032;SDS011;31720;52.638;9.216;2022-09-24T17:10:15;17.05;;;8.38;;
32032;SDS011;31720;52.638;9.216;2022-09-24T17:13:18;21.38;;;10.25;;
32032;SDS011;31720;52.638;9.216;2022-09-24T17:16:22;23.90;;;10.82;;
32032;SDS011;31720;52.638;9.216;2022-09-24T17:19:23;22.10;;;10.25;;
32032;SDS011;31720;52.638;9.216;2022-09-24T17:22:25;19.23;;;10.25;;
32032;SDS011;31720;52.638;9.216;2022-09-24T17:25:26;21.27;;;10.80;;
32032;SDS011;31720;52.638;9.216;2022-09-24T17:28:31;20.65;;;10.85;;
32032;SDS011;31720;52.638;9.216;2022-09-24T17:31:33;20.77;;;10.65;;
32032;SDS011;31720;52.638;9.216;2022-09-24T17:34:34;17.88;;;10.32;;
32032;SDS011;31720;52.638;9.216;2022-09-24T17:37:36;21.00;;;9.88;;
32032;SDS011;31720;52.638;9.216;2022-09-24T17:40:37;23.92;;;12.00;;
32032;SDS011;31720;52.638;9.216;2022-09-24T17:43:40;20.20;;;10.40;;
32032;SDS011;31720;52.638;9.216;2022-09-24T17:46:41;18.40;;;9.45;;
32032;SDS011;31720;52.638;9.216;2022-09-24T17:49:43;20.77;;;9.95;;
32032;SDS011;31720;52.638;9.216;2022-09-24T17:52:44;19.75;;;10.40;;
32032;SDS011;31720;52.638;9.216;2022-09-24T17:55:46;18.88;;;9.27;;
32032;SDS011;31720;52.638;9.216;2022-09-24T17:58:50;19.30;;;9.50;;
32032;SDS011;31720;52.638;9.216;2022-09-24T18:01:52;18.25;;;9.18;;
32032;SDS011;31720;52.638;9.216;2022-09-24T18:04:53;20.38;;;9.18;;
32032;SDS011;31720;52.638;9.216;2022-09-24T18:07:54;19.63;;;9.57;;
32032;SDS011;31720;52.638;9.216;2022-09-24T18:10:59;18.95;;;9.38;;
32032;SDS011;31720;52.638;9.216;2022-09-24T18:14:02;15.75;;;8.13;;
32032;SDS011;31720;52.638;9.216;2022-09-24T18:17:03;15.43;;;8.07;;
32032;SDS011;31720;52.638;9.216;2022-09-24T18:20:05;19.55;;;9.05;;
32032;SDS011;31720;52.638;9.216;2022-09-24T18:23:07;20.75;;;9.43;;
32032;SDS011;31720;52.638;9.216;2022-09-24T18:26:09;17.02;;;7.97;;